createdAt,value
2018-11-13T00:02:08.797Z,18.33
2018-11-13T00:04:38.550Z,20.00
2018-11-13T00:07:08.212Z,20.23
2018-11-13T00:09:37.800Z,19.40
2018-11-13T00:12:09.857Z,18.10
2018-11-13T00:14:44.399Z,20.80
2018-11-13T00:17:18.024Z,19.80
2018-11-13T00:19:51.672Z,17.52
2018-11-13T00:22:21.565Z,16.53
2018-11-13T00:24:51.028Z,17.30
2018-11-13T00:27:20.814Z,16.87
2018-11-13T00:29:50.282Z,16.90
2018-11-13T00:32:19.686Z,17.23
2018-11-13T00:34:49.112Z,16.17
2018-11-13T00:37:18.595Z,16.97
2018-11-13T00:39:48.066Z,15.67
2018-11-13T00:42:17.564Z,14.80
2018-11-13T00:44:47.126Z,16.83
2018-11-13T00:47:16.467Z,15.50
2018-11-13T00:49:45.960Z,15.58
2018-11-13T00:52:15.500Z,17.17
2018-11-13T00:54:44.969Z,15.53
2018-11-13T00:57:14.451Z,18.60
2018-11-13T00:59:43.904Z,16.17
2018-11-13T01:02:13.403Z,17.87
2018-11-13T01:04:43.088Z,19.67
2018-11-13T01:07:13.627Z,17.50
2018-11-13T01:09:43.061Z,17.67
2018-11-13T01:12:12.430Z,19.07
2018-11-13T01:14:42.154Z,19.67
2018-11-13T01:17:12.170Z,18.30
2018-11-13T01:19:41.777Z,20.27
2018-11-13T01:22:11.486Z,20.97
2018-11-13T01:24:40.843Z,20.20
2018-11-13T01:27:10.279Z,23.03
2018-11-13T01:29:39.881Z,22.27
2018-11-13T01:32:09.230Z,22.00
2018-11-13T01:34:38.609Z,24.50
2018-11-13T01:37:08.099Z,24.70
2018-11-13T01:39:37.504Z,27.37
2018-11-13T01:42:06.945Z,26.37
2018-11-13T01:44:36.367Z,25.57
2018-11-13T01:47:05.988Z,28.27
2018-11-13T01:49:35.674Z,30.40
2018-11-13T01:52:05.730Z,27.58
2018-11-13T01:54:35.436Z,29.10
2018-11-13T01:57:05.279Z,30.30
2018-11-13T01:59:34.658Z,29.80
2018-11-13T02:02:04.069Z,29.27
2018-11-13T02:04:33.968Z,28.57
2018-11-13T02:07:05.327Z,33.55
2018-11-13T02:09:34.622Z,31.03
2018-11-13T02:12:04.116Z,31.42
2018-11-13T02:14:33.787Z,33.07
2018-11-13T02:17:03.153Z,31.93
2018-11-13T02:19:32.567Z,31.23
2018-11-13T02:22:02.170Z,32.60
2018-11-13T02:24:32.597Z,32.17
2018-11-13T02:27:04.113Z,31.68
2018-11-13T02:29:37.281Z,34.03
2018-11-13T02:32:07.767Z,31.40
2018-11-13T02:34:37.213Z,33.93
2018-11-13T02:37:06.782Z,32.33
2018-11-13T02:39:36.138Z,32.98
2018-11-13T02:42:05.972Z,31.87
2018-11-13T02:44:35.368Z,29.83
2018-11-13T02:47:04.983Z,29.73
2018-11-13T02:49:34.486Z,31.30
2018-11-13T02:52:03.888Z,30.90
2018-11-13T02:54:33.801Z,31.10
2018-11-13T02:57:03.189Z,33.27
2018-11-13T02:59:32.553Z,33.73
2018-11-13T03:02:02.044Z,32.60
2018-11-13T03:04:31.430Z,33.50
2018-11-13T03:07:01.062Z,32.63
2018-11-13T03:09:30.759Z,32.15
2018-11-13T03:12:00.139Z,32.75
2018-11-13T03:14:29.509Z,32.00
2018-11-13T03:16:59.491Z,32.73
2018-11-13T03:19:28.963Z,31.70
2018-11-13T03:21:58.490Z,33.02
2018-11-13T03:24:27.960Z,32.80
2018-11-13T03:26:57.307Z,32.55
2018-11-13T03:29:26.770Z,33.65
2018-11-13T03:31:56.156Z,33.23
2018-11-13T03:34:25.464Z,33.67
2018-11-13T03:36:54.795Z,31.10
2018-11-13T03:39:24.525Z,34.92
2018-11-13T03:41:54.041Z,35.30
2018-11-13T03:44:23.382Z,33.73
2018-11-13T03:46:52.790Z,34.55
2018-11-13T03:49:22.153Z,36.20
2018-11-13T03:51:51.541Z,34.98
2018-11-13T03:54:21.318Z,35.75
2018-11-13T03:56:50.754Z,36.03
2018-11-13T03:59:20.188Z,36.77
2018-11-13T04:01:50.116Z,36.20
2018-11-13T04:04:19.474Z,36.15
2018-11-13T04:06:48.982Z,36.65
2018-11-13T04:09:18.523Z,37.37
2018-11-13T04:11:47.932Z,34.07
2018-11-13T04:14:17.337Z,36.73
2018-11-13T04:16:47.254Z,37.03
2018-11-13T04:19:16.655Z,36.45
2018-11-13T04:21:51.287Z,35.63
2018-11-13T04:24:20.715Z,35.00
2018-11-13T04:26:50.337Z,37.17
2018-11-13T04:29:19.726Z,36.20
2018-11-13T04:31:49.091Z,37.15
2018-11-13T04:34:18.395Z,36.80
2018-11-13T04:36:48.363Z,35.90
2018-11-13T04:39:17.858Z,35.30
2018-11-13T04:41:47.215Z,36.20
2018-11-13T04:44:16.670Z,37.50
2018-11-13T04:46:46.101Z,37.95
2018-11-13T04:49:15.450Z,37.90
2018-11-13T04:51:45.184Z,38.47
2018-11-13T04:54:14.537Z,35.65
2018-11-13T04:56:43.974Z,39.42
2018-11-13T04:59:13.543Z,39.18
2018-11-13T05:01:43.131Z,38.15
2018-11-13T05:04:12.513Z,39.80
2018-11-13T05:06:41.882Z,41.25
2018-11-13T05:09:11.347Z,38.13
2018-11-13T05:11:40.677Z,37.33
2018-11-13T05:14:10.176Z,39.50
2018-11-13T05:16:39.834Z,42.45
2018-11-13T05:19:09.238Z,40.65
2018-11-13T05:21:38.736Z,37.33
2018-11-13T05:24:08.126Z,37.78
2018-11-13T05:26:37.516Z,40.25
2018-11-13T05:29:06.957Z,42.08
2018-11-13T05:31:36.318Z,40.60
2018-11-13T05:34:06.229Z,40.58
2018-11-13T05:36:36.964Z,39.95
2018-11-13T05:39:08.821Z,41.88
2018-11-13T05:41:38.420Z,38.95
2018-11-13T05:44:08.507Z,42.90
2018-11-13T05:46:38.341Z,40.08
2018-11-13T05:49:07.846Z,41.02
2018-11-13T05:51:37.184Z,41.88
2018-11-13T05:54:06.678Z,45.28
2018-11-13T05:56:36.077Z,41.13
2018-11-13T05:59:06.533Z,41.40
2018-11-13T06:01:36.786Z,39.98
2018-11-13T06:04:06.333Z,42.85
2018-11-13T06:06:35.754Z,42.17
2018-11-13T06:09:06.826Z,42.00
2018-11-13T06:11:36.126Z,42.43
2018-11-13T06:14:06.175Z,42.48
2018-11-13T06:16:36.082Z,45.23
2018-11-13T06:19:05.531Z,41.85
2018-11-13T06:21:35.071Z,39.73
2018-11-13T06:24:04.569Z,37.80
2018-11-13T06:26:33.915Z,42.20
2018-11-13T06:29:03.290Z,45.28
2018-11-13T06:31:32.715Z,41.55
2018-11-13T06:34:02.128Z,40.40
2018-11-13T06:36:31.502Z,41.50
2018-11-13T06:39:01.290Z,42.50
2018-11-13T06:41:30.866Z,41.85
2018-11-13T06:44:00.381Z,40.15
2018-11-13T06:46:31.642Z,42.17
2018-11-13T06:49:01.167Z,39.58
2018-11-13T06:51:30.400Z,41.65
2018-11-13T06:54:10.942Z,41.58
2018-11-13T06:56:40.249Z,41.33
2018-11-13T06:59:09.798Z,40.48
2018-11-13T07:01:39.194Z,42.40
2018-11-13T07:04:08.463Z,41.05
2018-11-13T07:06:37.892Z,40.63
2018-11-13T07:10:11.021Z,40.95
2018-11-13T07:12:41.538Z,36.85
2018-11-13T07:15:12.948Z,37.70
2018-11-13T07:17:43.703Z,38.85
2018-11-13T07:20:13.253Z,38.75
2018-11-13T07:22:43.306Z,35.70
2018-11-13T07:25:13.259Z,36.35
2018-11-13T07:27:43.275Z,37.98
2018-11-13T07:30:14.014Z,33.98
2018-11-13T07:32:43.943Z,36.30
2018-11-13T07:35:14.736Z,34.92
2018-11-13T07:37:53.216Z,33.42
2018-11-13T07:40:22.849Z,35.75
2018-11-13T07:42:52.743Z,30.32
2018-11-13T07:45:23.127Z,33.95
2018-11-13T07:47:53.116Z,29.57
2018-11-13T07:50:23.280Z,27.35
2018-11-13T07:52:53.791Z,30.52
2018-11-13T07:55:25.716Z,29.10
2018-11-13T07:57:57.366Z,27.15
2018-11-13T08:00:27.381Z,28.62
2018-11-13T08:03:02.734Z,26.17
2018-11-13T08:05:32.716Z,24.35
2018-11-13T08:08:03.189Z,25.68
2018-11-13T08:10:33.040Z,24.03
2018-11-13T08:13:04.682Z,24.12
2018-11-13T08:15:35.596Z,23.93
2018-11-13T08:18:05.385Z,23.50
2018-11-13T08:20:35.066Z,23.32
2018-11-13T08:23:09.220Z,23.15
2018-11-13T08:25:39.861Z,22.95
2018-11-13T08:28:09.808Z,21.68
2018-11-13T08:30:43.172Z,20.87
2018-11-13T08:33:13.151Z,21.33
2018-11-13T08:35:43.013Z,20.27
2018-11-13T08:38:12.653Z,21.77
2018-11-13T08:40:42.207Z,21.10
2018-11-13T08:43:11.948Z,19.93
2018-11-13T08:45:41.336Z,21.20
2018-11-13T08:48:10.721Z,18.20
2018-11-13T08:50:40.896Z,19.03
2018-11-13T08:53:10.354Z,20.13
2018-11-13T08:55:40.872Z,19.00
2018-11-13T08:58:10.449Z,18.47
2018-11-13T09:00:39.803Z,19.57
2018-11-13T09:03:09.284Z,19.67
2018-11-13T09:05:39.820Z,20.87
2018-11-13T09:08:09.246Z,18.90
2018-11-13T09:10:39.603Z,18.03
2018-11-13T09:13:09.066Z,17.20
2018-11-13T09:15:38.652Z,17.50
2018-11-13T09:18:08.150Z,18.20
2018-11-13T09:20:37.498Z,16.20
2018-11-13T09:23:06.884Z,17.20
2018-11-13T09:25:36.546Z,14.93
2018-11-13T09:28:07.253Z,18.37
2018-11-13T09:30:36.909Z,18.90
2018-11-13T09:33:06.396Z,17.10
2018-11-13T09:35:35.829Z,16.40
2018-11-13T09:38:05.496Z,16.67
2018-11-13T09:40:34.974Z,17.03
2018-11-13T09:43:04.707Z,17.67
2018-11-13T09:45:34.165Z,17.57
2018-11-13T09:48:03.726Z,17.60
2018-11-13T09:51:04.067Z,19.10
2018-11-13T09:53:33.566Z,20.83
2018-11-13T09:56:02.939Z,19.00
2018-11-13T09:58:33.598Z,18.83
2018-11-13T10:01:03.285Z,19.47
2018-11-13T10:03:36.099Z,19.33
2018-11-13T10:06:06.597Z,20.73
2018-11-13T10:08:36.199Z,19.60
2018-11-13T10:11:05.783Z,22.50
2018-11-13T10:13:35.224Z,22.20
2018-11-13T10:16:04.934Z,21.73
2018-11-13T10:18:34.281Z,23.00
2018-11-13T10:21:03.732Z,22.03
2018-11-13T10:23:34.350Z,24.57
2018-11-13T10:26:04.945Z,22.80
2018-11-13T10:28:34.637Z,23.47
2018-11-13T10:31:04.172Z,22.87
2018-11-13T10:33:34.113Z,22.63
2018-11-13T10:36:03.803Z,23.40
2018-11-13T10:38:33.298Z,22.60
2018-11-13T10:41:03.103Z,24.53
2018-11-13T10:43:32.682Z,25.57
2018-11-13T10:46:02.566Z,22.93
2018-11-13T10:48:31.962Z,25.27
2018-11-13T10:51:01.567Z,22.73
2018-11-13T10:53:31.182Z,25.40
2018-11-13T10:56:00.758Z,22.47
2018-11-13T10:58:30.726Z,22.07
2018-11-13T11:01:05.502Z,20.93
2018-11-13T11:03:46.013Z,23.50
2018-11-13T11:06:16.185Z,21.87
2018-11-13T11:08:46.209Z,21.13
2018-11-13T11:11:15.874Z,21.50
2018-11-13T11:13:46.918Z,20.27
2018-11-13T11:16:17.243Z,19.70
2018-11-13T11:18:48.139Z,22.10
2018-11-13T11:21:19.911Z,21.57
2018-11-13T11:23:49.643Z,20.97
2018-11-13T11:28:59.112Z,19.37
2018-11-13T11:31:28.702Z,19.90
2018-11-13T11:33:58.251Z,19.17
2018-11-13T11:36:27.730Z,18.60
2018-11-13T11:38:57.229Z,18.33
2018-11-13T11:41:26.975Z,17.17
2018-11-13T11:43:56.554Z,18.13
2018-11-13T11:46:25.912Z,18.77
2018-11-13T11:48:56.504Z,17.87
2018-11-13T11:51:26.036Z,16.00
2018-11-13T11:53:55.557Z,17.17
2018-11-13T11:56:25.104Z,17.00
2018-11-13T11:58:54.796Z,17.70
2018-11-13T12:01:30.581Z,14.33
2018-11-13T12:04:00.110Z,16.00
2018-11-13T12:06:31.711Z,14.63
2018-11-13T12:09:01.315Z,14.50
2018-11-13T12:11:31.083Z,16.40
2018-11-13T12:14:00.965Z,14.30
2018-11-13T12:16:30.600Z,15.07
2018-11-13T12:19:00.157Z,13.57
2018-11-13T12:21:31.720Z,12.37
2018-11-13T12:24:01.692Z,12.77
2018-11-13T12:26:31.310Z,14.57
2018-11-13T12:29:00.780Z,13.80
2018-11-13T12:31:30.225Z,11.10
2018-11-13T12:34:00.419Z,11.73
2018-11-13T12:36:29.800Z,12.20
2018-11-13T12:38:59.308Z,14.00
2018-11-13T12:41:35.362Z,11.40
2018-11-13T12:44:04.936Z,13.63
2018-11-13T12:46:34.435Z,12.60
2018-11-13T12:49:04.122Z,13.07
2018-11-13T12:51:34.607Z,13.30
2018-11-13T12:54:04.460Z,13.43
2018-11-13T12:56:33.835Z,12.83
2018-11-13T12:59:03.250Z,12.77
2018-11-13T13:01:32.776Z,12.80
2018-11-13T13:04:02.165Z,14.37
2018-11-13T13:06:33.804Z,12.07
2018-11-13T13:09:03.416Z,13.33
2018-11-13T13:11:32.815Z,12.77
2018-11-13T13:14:07.574Z,12.50
2018-11-13T13:16:38.104Z,12.60
2018-11-13T13:19:08.081Z,12.43
2018-11-13T13:21:37.492Z,12.80
2018-11-13T13:24:07.376Z,13.30
2018-11-13T13:26:37.470Z,13.60
2018-11-13T13:29:07.282Z,13.30
2018-11-13T13:31:37.620Z,12.87
2018-11-13T13:34:07.012Z,12.60
2018-11-13T13:36:36.376Z,12.87
2018-11-13T13:39:07.897Z,12.30
2018-11-13T13:41:37.326Z,12.90
2018-11-13T13:44:07.148Z,13.20
2018-11-13T13:46:36.796Z,13.20
2018-11-13T13:49:06.669Z,12.27
2018-11-13T13:51:36.371Z,13.53
2018-11-13T13:54:05.902Z,13.23
2018-11-13T13:56:35.395Z,12.60
2018-11-13T13:59:05.011Z,13.83
2018-11-13T14:01:35.302Z,14.83
2018-11-13T14:04:04.852Z,13.27
2018-11-13T14:06:34.474Z,12.57
2018-11-13T14:09:05.158Z,13.97
2018-11-13T14:11:35.682Z,13.10
2018-11-13T14:14:05.653Z,12.40
2018-11-13T14:16:35.257Z,10.80
2018-11-13T14:19:09.544Z,13.03
2018-11-13T14:21:39.849Z,13.07
2018-11-13T14:24:09.435Z,12.80
2018-11-13T14:26:40.183Z,14.50
2018-11-13T14:31:55.318Z,12.00
2018-11-13T14:34:24.733Z,13.17
2018-11-13T14:36:54.245Z,14.37
2018-11-13T14:39:23.842Z,13.00
2018-11-13T14:41:53.528Z,12.13
2018-11-13T14:44:24.093Z,12.60
2018-11-13T14:46:53.438Z,12.00
2018-11-13T14:49:23.993Z,13.70
2018-11-13T14:51:53.584Z,12.70
2018-11-13T14:54:23.127Z,12.10
2018-11-13T14:56:52.885Z,11.87
2018-11-13T14:59:23.209Z,11.20
2018-11-13T15:01:53.004Z,12.17
2018-11-13T15:04:22.270Z,10.80
2018-11-13T15:06:51.856Z,10.80
2018-11-13T15:09:21.183Z,10.90
2018-11-13T15:11:50.597Z,9.03
2018-11-13T15:14:20.115Z,10.07
2018-11-13T15:16:49.467Z,9.50
2018-11-13T15:19:26.730Z,10.10
2018-11-13T15:21:56.279Z,9.20
2018-11-13T15:24:25.903Z,9.93
2018-11-13T15:26:55.175Z,10.00
2018-11-13T15:29:24.629Z,10.80
2018-11-13T15:31:53.971Z,9.23
2018-11-13T15:34:23.474Z,10.27
2018-11-13T15:36:53.876Z,10.13
2018-11-13T15:39:23.387Z,8.27
2018-11-13T15:41:53.915Z,8.70
2018-11-13T15:44:23.392Z,8.00
2018-11-13T15:46:57.410Z,7.23
2018-11-13T15:49:27.286Z,8.77
2018-11-13T15:51:56.823Z,8.00
2018-11-13T15:54:27.005Z,7.90
2018-11-13T15:56:56.611Z,8.27
2018-11-13T15:59:28.738Z,9.13
2018-11-13T16:02:00.722Z,8.37
2018-11-13T16:04:30.760Z,8.00
2018-11-13T16:07:01.427Z,7.73
2018-11-13T16:09:30.979Z,8.60
2018-11-13T16:12:00.386Z,8.23
2018-11-13T16:17:10.030Z,8.10
2018-11-13T16:19:39.604Z,8.33
2018-11-13T16:22:10.177Z,7.30
2018-11-13T16:24:39.661Z,8.07
2018-11-13T16:27:09.034Z,7.93
2018-11-13T16:29:38.537Z,7.30
2018-11-13T16:32:08.303Z,7.27
2018-11-13T16:34:37.814Z,6.30
2018-11-13T16:37:07.534Z,5.30
2018-11-13T16:39:37.950Z,6.50
2018-11-13T16:42:07.742Z,6.17
2018-11-13T16:44:37.118Z,5.73
2018-11-13T16:47:06.601Z,4.70
2018-11-13T16:49:36.074Z,4.77
2018-11-13T16:52:05.701Z,5.90
2018-11-13T16:54:40.446Z,5.23
2018-11-13T16:57:10.911Z,4.73
2018-11-13T16:59:40.421Z,4.37
2018-11-13T17:02:11.031Z,4.30
2018-11-13T17:04:40.613Z,4.00
2018-11-13T17:07:11.051Z,3.80
2018-11-13T17:09:40.501Z,3.80
2018-11-13T17:12:11.149Z,4.00
2018-11-13T17:14:40.701Z,3.87
2018-11-13T17:17:10.373Z,4.67
2018-11-13T17:19:39.887Z,3.90
2018-11-13T17:22:09.285Z,3.73
2018-11-13T17:24:38.962Z,3.80
2018-11-13T17:27:08.667Z,5.07
2018-11-13T17:29:38.135Z,4.43
2018-11-13T17:32:08.004Z,4.07
2018-11-13T17:34:39.371Z,4.10
2018-11-13T17:37:08.870Z,4.37
2018-11-13T17:39:38.283Z,4.90
2018-11-13T17:42:10.506Z,3.20
2018-11-13T17:44:41.380Z,3.60
2018-11-13T17:47:10.807Z,5.00
2018-11-13T17:49:40.231Z,5.53
2018-11-13T17:52:09.762Z,5.83
2018-11-13T17:54:40.223Z,6.37
2018-11-13T17:57:10.262Z,5.70
2018-11-13T17:59:39.710Z,4.03
2018-11-13T18:02:09.736Z,5.37
2018-11-13T18:04:39.413Z,4.33
2018-11-13T18:07:09.048Z,3.53
2018-11-13T18:09:38.662Z,3.93
2018-11-13T18:12:08.444Z,4.30
2018-11-13T18:14:37.899Z,4.87
2018-11-13T18:17:08.421Z,5.37
2018-11-13T18:19:40.095Z,3.50
2018-11-13T18:22:09.672Z,4.67
2018-11-13T18:24:38.885Z,5.27
2018-11-13T18:27:08.816Z,4.13
2018-11-13T18:29:38.619Z,3.00
2018-11-13T18:32:08.079Z,3.67
2018-11-13T18:34:37.675Z,4.65
2018-11-13T18:37:07.404Z,3.97
2018-11-13T18:39:37.486Z,3.90
2018-11-13T18:42:09.023Z,3.90
2018-11-13T18:44:39.855Z,3.90
2018-11-13T18:47:09.668Z,3.87
2018-11-13T18:52:20.876Z,4.70
2018-11-13T18:54:51.806Z,3.47
2018-11-13T18:57:21.493Z,6.22
2018-11-13T18:59:51.053Z,3.33
2018-11-13T19:02:21.484Z,3.08
2018-11-13T19:04:51.663Z,5.87
2018-11-13T19:07:21.272Z,5.03
2018-11-13T19:09:52.884Z,3.85
2018-11-13T19:12:23.789Z,3.87
2018-11-13T19:14:53.721Z,4.67
2018-11-13T19:17:23.773Z,3.67
2018-11-13T19:19:53.712Z,4.13
2018-11-13T19:22:23.418Z,3.17
2018-11-13T19:24:52.986Z,4.17
2018-11-13T19:27:23.822Z,3.23
2018-11-13T19:29:53.945Z,2.70
2018-11-13T19:32:23.328Z,3.75
2018-11-13T19:34:53.294Z,4.45
2018-11-13T19:37:22.807Z,3.60
2018-11-13T19:39:52.461Z,3.43
2018-11-13T19:42:24.552Z,3.80
2018-11-13T19:45:04.779Z,4.47
2018-11-13T19:47:37.835Z,4.00
2018-11-13T19:50:09.456Z,4.23
2018-11-13T19:52:39.287Z,3.53
2018-11-13T19:55:09.983Z,4.30
2018-11-13T19:57:40.422Z,5.53
2018-11-13T20:00:22.128Z,3.53
2018-11-13T20:02:53.443Z,4.07
2018-11-13T20:05:26.575Z,4.20
2018-11-13T20:07:56.386Z,5.10
2018-11-13T20:10:27.392Z,4.37
2018-11-13T20:12:59.136Z,5.03
2018-11-13T20:15:30.858Z,5.23
2018-11-13T20:18:00.615Z,4.67
2018-11-13T20:20:31.850Z,3.83
2018-11-13T20:23:03.898Z,3.83
2018-11-13T20:25:34.889Z,4.87
2018-11-13T20:28:05.336Z,3.17
2018-11-13T20:30:36.270Z,3.70
2018-11-13T20:33:06.302Z,3.83
2018-11-13T20:35:35.931Z,5.00
2018-11-13T20:38:05.987Z,4.40
2018-11-13T20:40:37.138Z,7.17
2018-11-13T20:43:10.283Z,6.35
2018-11-13T20:45:39.827Z,4.10
2018-11-13T20:48:09.335Z,3.23
2018-11-13T20:50:38.793Z,4.00
2018-11-13T20:53:08.284Z,4.10
2018-11-13T20:57:02.024Z,3.03
2018-11-13T20:59:33.085Z,3.87
2018-11-13T21:02:02.555Z,3.67
2018-11-13T21:04:31.912Z,4.33
2018-11-13T21:07:01.367Z,3.40
2018-11-13T21:09:30.769Z,4.37
2018-11-13T21:12:00.240Z,4.90
2018-11-13T21:14:29.832Z,3.75
2018-11-13T21:16:59.453Z,4.15
2018-11-13T21:19:28.826Z,4.87
2018-11-13T21:21:58.767Z,4.87
2018-11-13T21:24:28.221Z,4.00
2018-11-13T21:26:57.655Z,5.15
2018-11-13T21:29:27.154Z,6.00
2018-11-13T21:31:56.755Z,5.42
2018-11-13T21:34:26.490Z,4.80
2018-11-13T21:36:56.109Z,4.40
2018-11-13T21:39:27.437Z,5.65
2018-11-13T21:41:59.792Z,5.60
2018-11-13T21:44:33.546Z,4.62
2018-11-13T21:47:05.744Z,3.47
2018-11-13T21:52:32.453Z,5.35
2018-11-13T21:55:02.316Z,4.35
2018-11-13T21:57:32.897Z,5.42
2018-11-13T22:00:03.951Z,5.70
2018-11-13T22:02:36.359Z,4.40
2018-11-13T22:05:09.856Z,4.40
2018-11-13T22:07:43.091Z,5.12
2018-11-13T22:10:15.228Z,4.40
2018-11-13T22:12:46.735Z,6.15
2018-11-13T22:15:23.481Z,5.53
2018-11-13T22:17:54.528Z,4.60
2018-11-13T22:20:24.843Z,4.50
2018-11-13T22:22:56.467Z,5.55
2018-11-13T22:25:27.187Z,5.60
2018-11-13T22:27:57.713Z,5.63
2018-11-13T22:30:28.883Z,5.83
2018-11-13T22:32:58.364Z,5.97
2018-11-13T22:35:28.278Z,6.33
2018-11-13T22:37:57.804Z,5.10
2018-11-13T22:40:28.417Z,4.87
2018-11-13T22:42:58.502Z,5.95
2018-11-13T22:45:29.943Z,5.13
2018-11-13T22:48:00.375Z,5.03
2018-11-13T22:50:31.271Z,6.42
2018-11-13T22:53:00.648Z,6.87
2018-11-13T22:55:30.397Z,8.57
2018-11-13T22:58:00.852Z,6.20
2018-11-13T23:00:39.242Z,6.87
2018-11-13T23:03:09.880Z,7.35
2018-11-13T23:05:43.801Z,7.40
2018-11-13T23:08:14.701Z,5.90
2018-11-13T23:10:44.248Z,6.22
2018-11-13T23:13:13.931Z,6.83
2018-11-13T23:15:43.502Z,5.70
2018-11-13T23:18:13.878Z,5.42
2018-11-13T23:20:43.357Z,7.75
2018-11-13T23:23:12.877Z,5.83
2018-11-13T23:25:42.754Z,5.60
2018-11-13T23:28:12.292Z,5.97
2018-11-13T23:30:41.744Z,6.15
2018-11-13T23:33:11.597Z,6.30
2018-11-13T23:35:41.137Z,5.17
2018-11-13T23:38:10.627Z,6.77
2018-11-13T23:40:40.094Z,5.28
2018-11-13T23:43:09.796Z,6.50
2018-11-13T23:45:39.075Z,5.37
2018-11-13T23:48:08.537Z,4.97
2018-11-13T23:50:38.054Z,5.57
2018-11-13T23:53:07.658Z,4.17
2018-11-13T23:55:37.244Z,4.30
2018-11-13T23:58:06.814Z,4.70
